createdAt,value
2018-03-15T00:00:11.314Z,67.89
2018-03-15T00:03:18.642Z,67.83
2018-03-15T00:06:21.798Z,67.68
2018-03-15T00:09:24.995Z,67.65
2018-03-15T00:12:28.197Z,67.73
2018-03-15T00:15:31.382Z,67.76
2018-03-15T00:18:34.596Z,68.36
2018-03-15T00:21:37.775Z,68.10
2018-03-15T00:24:40.960Z,68.00
2018-03-15T00:27:44.175Z,68.15
2018-03-15T00:30:47.345Z,68.15
2018-03-15T00:33:50.551Z,68.08
2018-03-15T00:36:53.726Z,68.49
2018-03-15T00:39:56.870Z,68.79
2018-03-15T00:43:00.164Z,68.72
2018-03-15T00:46:03.335Z,68.76
2018-03-15T00:49:06.528Z,69.08
2018-03-15T00:52:09.724Z,69.84
2018-03-15T00:55:13.013Z,69.72
2018-03-15T00:58:16.226Z,69.41
2018-03-15T01:01:19.412Z,69.48
2018-03-15T01:04:22.614Z,69.45
2018-03-15T01:07:25.838Z,69.20
2018-03-15T01:10:29.011Z,69.92
2018-03-15T01:13:32.141Z,69.53
2018-03-15T01:16:35.298Z,69.93
2018-03-15T01:19:38.469Z,69.42
2018-03-15T01:22:41.673Z,69.47
2018-03-15T01:25:44.873Z,69.73
2018-03-15T01:28:48.074Z,70.27
2018-03-15T01:31:51.205Z,70.71
2018-03-15T01:34:54.377Z,70.36
2018-03-15T01:37:57.567Z,70.59
2018-03-15T01:41:00.753Z,70.49
2018-03-15T01:44:03.946Z,70.87
2018-03-15T01:47:07.135Z,70.71
2018-03-15T01:50:10.331Z,71.01
2018-03-15T01:53:13.518Z,71.08
2018-03-15T01:56:16.714Z,71.00
2018-03-15T01:59:19.887Z,71.71
2018-03-15T02:02:23.111Z,71.04
2018-03-15T02:05:26.383Z,71.13
2018-03-15T02:08:29.527Z,71.08
2018-03-15T02:11:32.692Z,71.50
2018-03-15T02:14:35.843Z,71.61
2018-03-15T02:17:38.978Z,71.59
2018-03-15T02:20:42.105Z,71.86
2018-03-15T02:23:45.246Z,71.77
2018-03-15T02:26:48.381Z,72.24
2018-03-15T02:29:51.533Z,72.10
2018-03-15T02:32:54.768Z,72.09
2018-03-15T02:35:57.959Z,72.37
2018-03-15T02:39:01.150Z,72.20
2018-03-15T02:42:04.387Z,72.13
2018-03-15T02:45:07.500Z,72.70
2018-03-15T02:48:10.643Z,72.41
2018-03-15T02:51:13.848Z,72.58
2018-03-15T02:54:17.020Z,72.88
2018-03-15T02:57:20.179Z,72.98
2018-03-15T03:00:23.430Z,72.96
2018-03-15T03:03:26.547Z,73.07
2018-03-15T03:06:29.689Z,73.63
2018-03-15T03:09:32.905Z,73.66
2018-03-15T03:12:36.123Z,73.84
2018-03-15T03:15:39.274Z,73.39
2018-03-15T03:18:42.435Z,73.93
2018-03-15T03:21:45.563Z,74.15
2018-03-15T03:24:48.788Z,74.16
2018-03-15T03:27:51.923Z,74.28
2018-03-15T03:30:55.149Z,74.66
2018-03-15T03:33:58.340Z,74.20
2018-03-15T03:37:01.646Z,74.04
2018-03-15T03:40:04.863Z,74.08
2018-03-15T03:43:08.050Z,74.60
2018-03-15T03:46:11.342Z,74.80
2018-03-15T03:49:14.526Z,74.93
2018-03-15T03:52:17.667Z,74.94
2018-03-15T03:55:20.907Z,75.12
2018-03-15T03:58:24.039Z,74.90
2018-03-15T04:01:27.206Z,74.64
2018-03-15T04:04:30.341Z,74.80
2018-03-15T04:07:33.463Z,74.73
2018-03-15T04:10:36.626Z,75.09
2018-03-15T04:13:39.751Z,75.14
2018-03-15T04:16:42.883Z,74.62
2018-03-15T04:19:46.011Z,74.88
2018-03-15T04:22:49.160Z,75.38
2018-03-15T04:25:52.278Z,74.84
2018-03-15T04:28:55.441Z,74.81
2018-03-15T04:31:58.649Z,74.95
2018-03-15T04:35:01.862Z,75.00
2018-03-15T04:38:05.108Z,74.95
2018-03-15T04:41:08.266Z,75.00
2018-03-15T04:44:11.440Z,75.23
2018-03-15T04:47:14.628Z,74.90
2018-03-15T04:50:17.815Z,75.16
2018-03-15T04:53:20.959Z,75.16
2018-03-15T04:56:24.113Z,75.36
2018-03-15T04:59:27.290Z,74.87
2018-03-15T05:02:30.485Z,75.27
2018-03-15T05:05:33.698Z,75.39
2018-03-15T05:08:36.894Z,75.24
2018-03-15T05:11:40.030Z,75.47
2018-03-15T05:14:43.278Z,75.53
2018-03-15T05:17:46.414Z,75.39
2018-03-15T05:20:49.534Z,75.23
2018-03-15T05:23:52.848Z,74.83
2018-03-15T05:26:56.190Z,74.87
2018-03-15T05:29:59.454Z,74.93
2018-03-15T05:33:02.672Z,74.80
2018-03-15T05:36:05.873Z,74.83
2018-03-15T05:39:09.183Z,75.04
2018-03-15T05:42:12.446Z,74.89
2018-03-15T05:45:15.751Z,74.34
2018-03-15T05:48:19.032Z,74.69
2018-03-15T05:51:22.414Z,74.96
2018-03-15T05:54:25.623Z,74.38
2018-03-15T05:57:28.929Z,74.43
2018-03-15T06:00:32.222Z,74.19
2018-03-15T06:03:35.535Z,74.08
2018-03-15T06:06:38.826Z,73.79
2018-03-15T06:09:42.238Z,73.90
2018-03-15T06:12:45.557Z,73.60
2018-03-15T06:15:48.823Z,73.11
2018-03-15T06:18:53.031Z,73.26
2018-03-15T06:21:56.266Z,73.01
2018-03-15T06:24:59.418Z,73.05
2018-03-15T06:28:02.618Z,72.95
2018-03-15T06:31:05.830Z,72.70
2018-03-15T06:34:09.011Z,72.67
2018-03-15T06:37:12.196Z,72.67
2018-03-15T06:40:15.476Z,72.22
2018-03-15T06:43:18.694Z,71.98
2018-03-15T06:46:21.897Z,71.55
2018-03-15T06:49:25.062Z,71.71
2018-03-15T06:52:28.290Z,71.46
2018-03-15T06:55:31.471Z,71.13
2018-03-15T06:58:34.583Z,70.92
2018-03-15T07:01:37.949Z,70.76
2018-03-15T07:04:41.112Z,70.42
2018-03-15T07:07:44.305Z,70.38
2018-03-15T07:10:47.455Z,70.45
2018-03-15T07:13:50.672Z,70.35
2018-03-15T07:16:53.842Z,70.06
2018-03-15T07:19:57.175Z,69.81
2018-03-15T07:23:00.360Z,69.66
2018-03-15T07:26:03.541Z,69.42
2018-03-15T07:29:06.687Z,69.45
2018-03-15T07:32:09.927Z,69.06
2018-03-15T07:35:13.115Z,68.73
2018-03-15T07:38:16.378Z,68.64
2018-03-15T07:41:19.614Z,68.44
2018-03-15T07:44:22.835Z,68.12
2018-03-15T07:47:26.007Z,67.94
2018-03-15T07:50:29.302Z,67.26
2018-03-15T07:53:32.485Z,67.23
2018-03-15T07:56:35.651Z,67.04
2018-03-15T07:59:38.787Z,66.75
2018-03-15T08:02:41.962Z,66.53
2018-03-15T08:05:45.184Z,66.03
2018-03-15T08:08:48.363Z,65.65
2018-03-15T08:11:51.545Z,65.54
2018-03-15T08:14:54.722Z,65.37
2018-03-15T08:17:57.867Z,65.66
2018-03-15T08:21:01.050Z,65.45
2018-03-15T08:24:04.229Z,64.87
2018-03-15T08:27:07.430Z,64.84
2018-03-15T08:30:10.639Z,64.38
2018-03-15T08:33:13.830Z,64.13
2018-03-15T08:36:17.032Z,64.12
2018-03-15T08:39:20.203Z,64.09
2018-03-15T08:42:23.352Z,63.44
2018-03-15T08:45:26.531Z,63.25
2018-03-15T08:48:29.706Z,63.57
2018-03-15T08:51:32.889Z,63.08
2018-03-15T08:54:36.039Z,63.15
2018-03-15T08:57:39.170Z,62.94
2018-03-15T09:00:42.362Z,63.46
2018-03-15T09:03:45.566Z,63.02
2018-03-15T09:06:48.769Z,62.80
2018-03-15T09:09:51.950Z,62.54
2018-03-15T09:12:55.086Z,62.21
2018-03-15T09:15:58.261Z,61.71
2018-03-15T09:19:01.436Z,61.63
2018-03-15T09:22:04.658Z,61.02
2018-03-15T09:25:07.834Z,61.29
2018-03-15T09:28:11.025Z,61.28
2018-03-15T09:31:14.214Z,60.70
2018-03-15T09:34:17.429Z,60.32
2018-03-15T09:37:20.630Z,60.63
2018-03-15T09:40:23.815Z,60.48
2018-03-15T09:43:27.030Z,59.99
2018-03-15T09:46:30.190Z,59.62
2018-03-15T09:49:33.391Z,60.02
2018-03-15T09:52:36.540Z,59.13
2018-03-15T09:55:39.698Z,59.43
2018-03-15T09:58:42.842Z,58.93
2018-03-15T10:01:45.983Z,59.20
2018-03-15T10:04:49.158Z,58.51
2018-03-15T10:07:52.289Z,58.94
2018-03-15T10:10:55.402Z,58.93
2018-03-15T10:13:58.532Z,58.41
2018-03-15T10:17:01.773Z,58.41
2018-03-15T10:20:04.854Z,58.57
2018-03-15T10:23:07.986Z,58.47
2018-03-15T10:26:11.121Z,57.80
2018-03-15T10:29:14.308Z,57.71
2018-03-15T10:32:17.557Z,57.74
2018-03-15T10:35:25.751Z,57.69
2018-03-15T10:38:28.991Z,57.55
2018-03-15T10:41:32.182Z,57.45
2018-03-15T10:44:36.376Z,57.49
2018-03-15T10:47:39.597Z,58.10
2018-03-15T10:50:42.788Z,57.62
2018-03-15T10:53:45.994Z,57.10
2018-03-15T10:56:49.657Z,57.09
2018-03-15T10:59:52.936Z,56.77
2018-03-15T11:02:56.081Z,56.91
2018-03-15T11:06:03.449Z,56.67
2018-03-15T11:09:10.862Z,56.52
2018-03-15T11:12:14.069Z,56.03
2018-03-15T11:15:17.361Z,55.77
2018-03-15T11:18:21.493Z,56.04
2018-03-15T11:21:24.640Z,55.92
2018-03-15T11:24:27.790Z,54.98
2018-03-15T11:27:31.128Z,54.75
2018-03-15T11:30:34.276Z,53.72
2018-03-15T11:33:37.446Z,52.85
2018-03-15T11:36:40.647Z,52.05
2018-03-15T11:39:43.859Z,50.88
2018-03-15T11:42:47.035Z,50.09
2018-03-15T11:45:51.294Z,49.71
2018-03-15T11:48:54.461Z,47.29
2018-03-15T11:51:57.599Z,47.96
2018-03-15T11:55:00.849Z,46.80
2018-03-15T11:58:04.060Z,45.99
2018-03-15T12:01:07.315Z,45.66
2018-03-15T12:04:10.561Z,45.42
2018-03-15T12:07:13.752Z,44.82
2018-03-15T12:10:16.911Z,43.92
2018-03-15T12:13:20.547Z,42.73
2018-03-15T12:16:23.725Z,42.63
2018-03-15T12:19:27.005Z,42.14
2018-03-15T12:22:30.205Z,41.81
2018-03-15T12:25:34.846Z,41.49
2018-03-15T12:28:38.061Z,41.56
2018-03-15T12:31:41.323Z,41.33
2018-03-15T12:34:44.601Z,41.69
2018-03-15T12:37:47.826Z,42.06
2018-03-15T12:40:50.989Z,42.61
2018-03-15T12:43:54.334Z,41.94
2018-03-15T12:46:57.742Z,42.81
2018-03-15T12:50:00.894Z,43.10
2018-03-15T12:53:04.095Z,43.06
2018-03-15T12:56:08.202Z,43.21
2018-03-15T12:59:11.317Z,43.67
2018-03-15T13:02:14.505Z,44.42
2018-03-15T13:05:17.635Z,43.73
2018-03-15T13:08:20.790Z,44.06
2018-03-15T13:11:23.994Z,44.04
2018-03-15T13:14:27.201Z,44.76
2018-03-15T13:17:30.319Z,44.75
2018-03-15T13:20:33.472Z,45.41
2018-03-15T13:23:37.937Z,44.87
2018-03-15T13:26:41.114Z,45.31
2018-03-15T13:29:44.263Z,45.43
2018-03-15T13:32:47.479Z,44.57
2018-03-15T13:35:50.867Z,44.73
2018-03-15T13:38:54.139Z,45.07
2018-03-15T13:41:57.275Z,44.27
2018-03-15T13:45:00.478Z,44.96
2018-03-15T13:48:03.721Z,44.94
2018-03-15T13:51:07.306Z,45.00
2018-03-15T13:54:10.457Z,43.93
2018-03-15T13:57:13.641Z,44.25
2018-03-15T14:00:16.866Z,44.57
2018-03-15T14:03:20.344Z,44.45
2018-03-15T14:06:23.539Z,45.14
2018-03-15T14:09:26.730Z,44.46
2018-03-15T14:12:29.941Z,45.08
2018-03-15T14:15:33.150Z,45.07
2018-03-15T14:18:36.318Z,44.86
2018-03-15T14:21:39.466Z,44.80
2018-03-15T14:24:43.024Z,44.96
2018-03-15T14:27:46.222Z,45.07
2018-03-15T14:30:49.455Z,44.94
2018-03-15T14:33:52.618Z,45.39
2018-03-15T14:36:55.773Z,45.56
2018-03-15T14:39:58.998Z,45.46
2018-03-15T14:43:02.196Z,45.50
2018-03-15T14:46:05.389Z,45.71
2018-03-15T14:49:09.609Z,45.85
2018-03-15T14:52:12.803Z,45.67
2018-03-15T14:55:16.003Z,45.89
2018-03-15T14:58:19.182Z,45.92
2018-03-15T15:01:22.398Z,45.64
2018-03-15T15:04:25.802Z,45.86
2018-03-15T15:07:29.107Z,45.53
2018-03-15T15:10:32.234Z,46.00
2018-03-15T15:13:35.363Z,46.32
2018-03-15T15:16:39.491Z,46.32
2018-03-15T15:19:42.686Z,46.51
2018-03-15T15:22:45.893Z,46.79
2018-03-15T15:25:49.102Z,46.54
2018-03-15T15:28:52.303Z,46.34
2018-03-15T15:31:55.534Z,46.07
2018-03-15T15:34:58.750Z,46.14
2018-03-15T15:38:01.956Z,46.29
2018-03-15T15:41:05.187Z,47.06
2018-03-15T15:44:09.482Z,47.03
2018-03-15T15:47:12.658Z,47.70
2018-03-15T15:50:15.962Z,47.47
2018-03-15T15:53:19.162Z,47.20
2018-03-15T15:56:22.354Z,47.63
2018-03-15T15:59:25.556Z,47.05
2018-03-15T16:02:28.743Z,47.59
2018-03-15T16:05:31.956Z,47.76
2018-03-15T16:08:35.140Z,47.47
2018-03-15T16:11:39.447Z,47.58
2018-03-15T16:14:42.659Z,47.55
2018-03-15T16:17:45.922Z,47.86
2018-03-15T16:20:49.151Z,48.38
2018-03-15T16:23:52.337Z,48.26
2018-03-15T16:26:55.567Z,48.56
2018-03-15T16:29:58.730Z,48.99
2018-03-15T16:33:01.903Z,48.87
2018-03-15T16:36:05.130Z,49.48
2018-03-15T16:39:09.058Z,51.60
2018-03-15T16:42:12.231Z,51.87
2018-03-15T16:45:15.414Z,52.82
2018-03-15T16:48:18.624Z,54.63
2018-03-15T16:51:21.811Z,57.79
2018-03-15T16:54:25.035Z,57.30
2018-03-15T16:57:28.272Z,58.00
2018-03-15T17:00:31.616Z,62.76
2018-03-15T17:03:34.794Z,61.36
2018-03-15T17:06:38.435Z,61.20
2018-03-15T17:09:41.600Z,60.88
2018-03-15T17:12:44.729Z,61.02
2018-03-15T17:15:47.911Z,61.42
2018-03-15T17:18:51.195Z,61.69
2018-03-15T17:21:54.440Z,62.11
2018-03-15T17:24:58.042Z,62.82
2018-03-15T17:28:01.226Z,64.27
2018-03-15T17:31:04.508Z,62.54
2018-03-15T17:34:08.674Z,62.92
2018-03-15T17:37:12.033Z,64.31
2018-03-15T17:40:15.341Z,64.36
2018-03-15T17:43:18.519Z,64.18
2018-03-15T17:46:21.796Z,65.98
2018-03-15T17:49:25.567Z,65.22
2018-03-15T17:52:28.756Z,65.30
2018-03-15T17:55:32.022Z,66.29
2018-03-15T17:58:35.120Z,65.15
2018-03-15T18:01:38.794Z,66.64
2018-03-15T18:04:42.034Z,68.04
2018-03-15T18:07:45.295Z,69.19
2018-03-15T18:10:48.466Z,68.85
2018-03-15T18:13:51.665Z,68.93
2018-03-15T18:16:55.321Z,69.94
2018-03-15T18:19:58.524Z,70.23
2018-03-15T18:23:01.662Z,68.00
2018-03-15T18:26:04.930Z,68.98
2018-03-15T18:29:08.163Z,67.41
2018-03-15T18:32:11.345Z,67.96
2018-03-15T18:35:14.544Z,68.71
2018-03-15T18:38:17.743Z,67.99
2018-03-15T18:41:20.894Z,67.27
2018-03-15T18:44:24.052Z,67.03
2018-03-15T18:47:27.270Z,67.29
2018-03-15T18:50:30.586Z,66.76
2018-03-15T18:53:33.740Z,67.47
2018-03-15T18:56:36.911Z,68.51
2018-03-15T18:59:40.114Z,67.51
2018-03-15T19:02:43.301Z,67.52
2018-03-15T19:05:46.483Z,66.30
2018-03-15T19:08:49.627Z,66.53
2018-03-15T19:11:52.779Z,67.79
2018-03-15T19:14:55.984Z,67.15
2018-03-15T19:17:59.176Z,67.86
2018-03-15T19:21:02.367Z,67.97
2018-03-15T19:24:05.593Z,68.25
2018-03-15T19:27:08.924Z,69.69
2018-03-15T19:30:12.155Z,69.90
2018-03-15T19:33:15.362Z,70.84
2018-03-15T19:36:18.546Z,71.65
2018-03-15T19:39:21.797Z,71.82
2018-03-15T19:42:25.051Z,72.57
2018-03-15T19:45:28.282Z,73.50
2018-03-15T19:48:31.414Z,73.97
2018-03-15T19:51:34.713Z,74.17
2018-03-15T19:54:38.543Z,73.70
2018-03-15T19:57:41.690Z,73.30
2018-03-15T20:00:44.846Z,73.42
2018-03-15T20:03:48.532Z,73.58
2018-03-15T20:06:51.806Z,73.83
2018-03-15T20:09:54.926Z,73.90
2018-03-15T20:12:58.578Z,73.72
2018-03-15T20:16:01.751Z,73.84
2018-03-15T20:19:09.205Z,74.02
2018-03-15T20:22:12.410Z,73.95
2018-03-15T20:25:15.620Z,73.71
2018-03-15T20:28:49.466Z,73.03
2018-03-15T20:31:52.717Z,72.40
2018-03-15T20:34:55.906Z,72.88
2018-03-15T20:37:59.289Z,72.66
2018-03-15T20:41:36.681Z,73.41
2018-03-15T20:44:39.899Z,73.40
2018-03-15T20:48:45.925Z,73.30
2018-03-15T20:51:49.193Z,74.17
2018-03-15T20:54:52.373Z,74.21
2018-03-15T20:57:55.798Z,74.77
2018-03-15T21:00:59.057Z,74.80
2018-03-15T21:04:02.299Z,74.84
2018-03-15T21:07:05.460Z,75.16
2018-03-15T21:10:08.682Z,75.12
2018-03-15T21:13:11.862Z,75.11
2018-03-15T21:16:15.102Z,75.20
2018-03-15T21:19:18.351Z,75.43
2018-03-15T21:22:21.795Z,75.51
2018-03-15T21:25:25.046Z,76.15
2018-03-15T21:28:28.334Z,76.37
2018-03-15T21:31:31.514Z,77.05
2018-03-15T21:34:34.718Z,77.22
2018-03-15T21:37:37.886Z,76.86
2018-03-15T21:40:41.145Z,76.90
2018-03-15T21:43:44.273Z,77.36
2018-03-15T21:46:47.497Z,77.43
2018-03-15T21:49:50.703Z,77.43
2018-03-15T21:52:53.887Z,76.77
2018-03-15T21:55:57.081Z,77.29
2018-03-15T21:59:00.266Z,77.63
2018-03-15T22:02:03.481Z,78.69
2018-03-15T22:05:06.701Z,79.25
2018-03-15T22:08:10.174Z,79.75
2018-03-15T22:11:43.536Z,80.20
2018-03-15T22:14:49.914Z,80.55
2018-03-15T22:17:55.443Z,80.33
2018-03-15T22:20:58.676Z,79.81
2018-03-15T22:24:01.890Z,80.44
2018-03-15T22:27:05.688Z,80.10
2018-03-15T22:30:08.892Z,80.31
2018-03-15T22:33:39.614Z,80.12
2018-03-15T22:48:39.959Z,79.94
2018-03-15T22:53:05.221Z,79.66
2018-03-15T22:56:27.820Z,79.18
2018-03-15T23:00:11.279Z,79.81
2018-03-15T23:07:09.598Z,78.23
2018-03-15T23:10:38.004Z,79.26
2018-03-15T23:17:50.912Z,78.39
2018-03-15T23:21:20.505Z,78.18
2018-03-15T23:25:00.139Z,78.23
2018-03-15T23:29:33.022Z,77.34
2018-03-15T23:33:08.831Z,77.54
2018-03-15T23:47:58.435Z,77.11
2018-03-15T23:58:37.125Z,77.09
